createdAt,value
2022-12-14T00:01:27.872Z,25.25
2022-12-14T00:03:55.548Z,32.70
2022-12-14T00:06:24.323Z,28.92
2022-12-14T00:08:52.188Z,23.05
2022-12-14T00:11:25.040Z,30.48
2022-12-14T00:13:53.814Z,26.80
2022-12-14T00:16:21.376Z,36.20
2022-12-14T00:18:52.900Z,26.35
2022-12-14T00:21:20.129Z,29.08
2022-12-14T00:23:47.791Z,33.13
2022-12-14T00:26:26.353Z,32.08
2022-12-14T00:28:54.395Z,29.88
2022-12-14T00:31:21.952Z,32.40
2022-12-14T00:33:50.464Z,21.58
2022-12-14T00:36:17.859Z,28.17
2022-12-14T00:38:44.989Z,27.13
2022-12-14T00:41:12.734Z,30.17
2022-12-14T00:43:40.523Z,30.67
2022-12-14T00:46:07.698Z,29.33
2022-12-14T00:48:34.807Z,29.80
2022-12-14T00:53:28.795Z,29.75
2022-12-14T00:55:55.853Z,34.50
2022-12-14T01:01:07.908Z,31.25
2022-12-14T01:03:35.142Z,25.50
2022-12-14T01:06:02.689Z,31.70
2022-12-14T01:08:35.763Z,27.98
2022-12-14T01:11:07.029Z,32.92
2022-12-14T01:13:34.405Z,31.13
2022-12-14T01:16:09.532Z,36.92
2022-12-14T01:18:37.377Z,30.35
2022-12-14T01:21:23.467Z,28.15
2022-12-14T01:23:55.446Z,31.67
2022-12-14T01:26:22.741Z,28.38
2022-12-14T01:28:52.579Z,27.23
2022-12-14T01:31:21.808Z,30.05
2022-12-14T01:33:48.937Z,30.75
2022-12-14T01:36:17.899Z,26.50
2022-12-14T01:38:45.226Z,30.45
2022-12-14T01:41:27.513Z,30.23
2022-12-14T01:43:58.910Z,30.38
2022-12-14T01:46:45.432Z,31.48
2022-12-14T01:49:15.735Z,29.80
2022-12-14T01:51:44.724Z,30.42
2022-12-14T01:54:11.733Z,25.30
2022-12-14T01:59:08.140Z,30.13
2022-12-14T02:01:35.375Z,28.33
2022-12-14T02:04:02.543Z,27.60
2022-12-14T02:06:33.149Z,22.60
2022-12-14T02:09:00.224Z,25.80
2022-12-14T02:11:50.296Z,28.80
2022-12-14T02:14:17.374Z,25.90
2022-12-14T02:19:11.336Z,26.60
2022-12-14T02:24:54.997Z,23.23
2022-12-14T02:27:51.938Z,23.15
2022-12-14T02:30:22.537Z,28.00
2022-12-14T02:33:04.275Z,28.42
2022-12-14T02:35:49.404Z,26.35
2022-12-14T02:38:28.177Z,26.88
2022-12-14T02:41:23.373Z,26.13
2022-12-14T02:44:03.954Z,25.10
2022-12-14T02:46:34.458Z,25.95
2022-12-14T02:49:10.011Z,27.60
2022-12-14T02:52:18.136Z,29.58
2022-12-14T02:54:56.151Z,24.77
2022-12-14T02:57:42.837Z,25.17
2022-12-14T03:00:10.430Z,26.50
2022-12-14T03:02:38.780Z,27.67
2022-12-14T03:05:09.614Z,24.55
2022-12-14T03:08:02.585Z,31.00
2022-12-14T03:10:35.673Z,28.83
2022-12-14T03:13:12.024Z,22.45
2022-12-14T03:15:40.507Z,27.50
2022-12-14T03:18:07.762Z,27.00
2022-12-14T03:20:35.829Z,24.35
2022-12-14T03:23:12.219Z,29.02
2022-12-14T03:25:44.892Z,30.13
2022-12-14T03:28:24.438Z,25.17
2022-12-14T03:31:00.810Z,23.38
2022-12-14T03:33:28.414Z,27.95
2022-12-14T03:35:58.903Z,23.02
2022-12-14T03:38:41.160Z,27.23
2022-12-14T03:41:14.084Z,25.20
2022-12-14T03:43:53.102Z,24.45
2022-12-14T03:46:54.859Z,21.98
2022-12-14T03:49:34.113Z,19.92
2022-12-14T03:52:08.506Z,24.45
2022-12-14T03:55:01.754Z,27.67
2022-12-14T03:57:39.107Z,26.27
2022-12-14T04:00:11.173Z,22.92
2022-12-14T04:03:04.927Z,26.08
2022-12-14T04:05:46.992Z,20.55
2022-12-14T04:08:41.776Z,21.80
2022-12-14T04:11:29.541Z,28.50
2022-12-14T04:14:21.793Z,22.30
2022-12-14T04:17:07.868Z,22.48
2022-12-14T04:19:49.950Z,21.92
2022-12-14T04:22:18.942Z,23.55
2022-12-14T04:25:16.329Z,22.42
2022-12-14T04:28:04.262Z,25.02
2022-12-14T04:30:33.059Z,23.67
2022-12-14T04:33:22.539Z,21.70
2022-12-14T04:35:49.591Z,23.13
2022-12-14T04:40:54.993Z,24.25
2022-12-14T04:43:27.326Z,31.60
2022-12-14T04:46:14.357Z,27.90
2022-12-14T04:48:51.923Z,23.52
2022-12-14T04:51:31.422Z,26.92
2022-12-14T04:54:10.031Z,23.65
2022-12-14T04:56:49.136Z,29.85
2022-12-14T04:59:16.256Z,25.88
2022-12-14T05:04:25.827Z,22.30
2022-12-14T05:07:06.580Z,30.27
2022-12-14T05:09:35.149Z,26.90
2022-12-14T05:12:07.753Z,27.20
2022-12-14T05:14:44.129Z,33.47
2022-12-14T05:17:11.308Z,27.10
2022-12-14T05:19:44.331Z,26.70
2022-12-14T05:24:43.340Z,24.73
2022-12-14T05:27:10.507Z,27.38
2022-12-14T05:29:37.492Z,25.58
2022-12-14T05:34:32.087Z,24.03
2022-12-14T05:36:59.318Z,23.95
2022-12-14T05:39:26.429Z,24.08
2022-12-14T05:44:20.667Z,27.85
2022-12-14T05:46:47.837Z,26.42
2022-12-14T05:49:14.967Z,26.25
2022-12-14T05:51:42.059Z,28.15
2022-12-14T05:54:09.172Z,28.58
2022-12-14T05:56:36.323Z,33.33
2022-12-14T05:59:03.382Z,34.33
2022-12-14T06:03:57.584Z,24.27
2022-12-14T06:06:24.708Z,31.63
2022-12-14T06:08:51.844Z,29.70
2022-12-14T06:11:20.659Z,28.30
2022-12-14T06:13:47.745Z,34.40
2022-12-14T06:16:16.181Z,30.17
2022-12-14T06:18:53.890Z,25.42
2022-12-14T06:21:27.483Z,29.20
2022-12-14T06:23:55.066Z,32.40
2022-12-14T06:26:22.398Z,30.48
2022-12-14T06:28:49.483Z,29.35
2022-12-14T06:36:23.964Z,28.15
2022-12-14T06:38:51.647Z,30.67
2022-12-14T06:41:18.655Z,28.38
2022-12-14T06:46:17.562Z,25.67
2022-12-14T06:48:48.675Z,27.17
2022-12-14T06:51:15.846Z,30.02
2022-12-14T06:53:42.990Z,32.15
2022-12-14T06:56:11.855Z,31.17
2022-12-14T06:58:38.973Z,31.13
2022-12-14T07:01:11.674Z,32.75
2022-12-14T07:03:39.031Z,32.08
2022-12-14T07:06:06.907Z,34.40
2022-12-14T07:08:36.533Z,30.38
2022-12-14T07:11:08.215Z,32.70
2022-12-14T07:13:35.538Z,29.45
2022-12-14T07:16:02.835Z,40.20
2022-12-14T07:18:30.553Z,31.90
2022-12-14T07:21:09.592Z,33.58
2022-12-14T07:23:40.510Z,31.77
2022-12-14T07:26:12.019Z,26.15
2022-12-14T07:28:39.644Z,30.83
2022-12-14T07:31:10.379Z,33.95
2022-12-14T07:33:38.702Z,31.70
2022-12-14T07:36:06.799Z,27.88
2022-12-14T07:38:35.249Z,31.95
2022-12-14T07:41:17.659Z,31.13
2022-12-14T07:43:49.881Z,27.88
2022-12-14T07:46:22.391Z,34.60
2022-12-14T07:48:50.958Z,29.77
2022-12-14T07:51:20.183Z,33.25
2022-12-14T07:53:47.442Z,27.23
2022-12-14T07:56:15.967Z,27.42
2022-12-14T07:58:43.022Z,27.33
2022-12-14T08:03:41.364Z,33.55
2022-12-14T08:06:08.973Z,34.28
2022-12-14T08:08:36.343Z,28.05
2022-12-14T08:11:03.590Z,31.15
2022-12-14T08:13:31.548Z,25.70
2022-12-14T08:16:08.754Z,30.77
2022-12-14T08:18:36.071Z,31.25
2022-12-14T08:21:03.646Z,32.17
2022-12-14T08:23:31.241Z,25.75
2022-12-14T08:25:59.384Z,27.02
2022-12-14T08:28:27.451Z,30.80
2022-12-14T08:30:54.714Z,29.92
2022-12-14T08:33:22.169Z,34.88
2022-12-14T08:35:49.294Z,31.35
2022-12-14T08:38:16.367Z,29.02
2022-12-14T08:43:10.455Z,28.55
2022-12-14T08:45:37.609Z,26.85
2022-12-14T08:48:04.775Z,27.90
2022-12-14T08:50:31.805Z,35.38
2022-12-14T08:55:30.162Z,30.50
2022-12-14T08:57:58.992Z,27.58
2022-12-14T09:00:26.065Z,37.80
2022-12-14T09:05:21.890Z,26.10
2022-12-14T09:07:49.207Z,36.03
2022-12-14T09:10:16.482Z,32.55
2022-12-14T09:12:43.719Z,25.77
2022-12-14T09:15:11.595Z,32.85
2022-12-14T09:17:38.755Z,27.45
2022-12-14T09:20:06.609Z,29.17
2022-12-14T09:22:33.780Z,28.58
2022-12-14T09:25:00.922Z,31.90
2022-12-14T09:29:55.688Z,27.17
2022-12-14T09:34:50.040Z,27.75
2022-12-14T09:37:17.148Z,31.13
2022-12-14T09:42:29.919Z,39.45
2022-12-14T09:45:28.023Z,28.70
2022-12-14T09:48:33.271Z,28.92
2022-12-14T09:51:00.411Z,27.55
2022-12-14T09:53:28.016Z,28.50
2022-12-14T09:55:55.928Z,28.83
2022-12-14T09:58:25.892Z,31.30
2022-12-14T10:01:16.252Z,29.55
2022-12-14T10:03:50.012Z,28.27
2022-12-14T10:06:23.173Z,29.85
2022-12-14T10:09:18.035Z,26.42
2022-12-14T10:12:00.566Z,27.60
2022-12-14T10:14:50.939Z,27.40
2022-12-14T10:17:22.089Z,26.25
2022-12-14T10:19:56.925Z,26.30
2022-12-14T10:22:28.652Z,25.30
2022-12-14T10:25:07.003Z,24.13
2022-12-14T10:27:54.190Z,24.52
2022-12-14T10:30:21.713Z,24.73
2022-12-14T10:32:52.697Z,22.20
2022-12-14T10:35:38.907Z,21.05
2022-12-14T10:38:49.318Z,29.48
2022-12-14T10:41:31.267Z,25.27
2022-12-14T10:44:23.007Z,31.73
2022-12-14T10:47:10.982Z,27.38
2022-12-14T10:49:46.063Z,25.77
2022-12-14T10:52:20.339Z,25.38
2022-12-14T10:54:56.111Z,24.33
2022-12-14T10:57:26.595Z,25.48
2022-12-14T11:00:07.750Z,23.40
2022-12-14T11:02:39.106Z,27.83
2022-12-14T11:05:36.098Z,25.67
2022-12-14T11:08:06.779Z,28.73
2022-12-14T11:10:36.223Z,23.67
2022-12-14T11:13:03.390Z,24.38
2022-12-14T11:18:03.822Z,28.60
2022-12-14T11:20:31.228Z,21.25
2022-12-14T11:23:09.381Z,22.33
2022-12-14T11:25:36.598Z,23.98
2022-12-14T11:28:15.289Z,21.77
2022-12-14T11:30:52.339Z,28.50
2022-12-14T11:33:19.561Z,22.27
2022-12-14T11:35:53.081Z,24.92
2022-12-14T11:38:20.220Z,22.85
2022-12-14T11:43:26.589Z,27.27
2022-12-14T11:45:55.288Z,22.77
2022-12-14T11:48:24.464Z,27.98
2022-12-14T11:50:53.228Z,24.10
2022-12-14T11:53:21.327Z,25.08
2022-12-14T11:55:56.950Z,31.02
2022-12-14T11:58:29.744Z,34.53
2022-12-14T12:00:59.629Z,33.85
2022-12-14T12:03:31.786Z,32.17
2022-12-14T12:06:04.965Z,35.78
2022-12-14T12:08:33.805Z,31.08
2022-12-14T12:11:02.982Z,32.08
2022-12-14T12:13:40.159Z,31.45
2022-12-14T12:16:16.707Z,31.10
2022-12-14T12:18:46.481Z,36.42
2022-12-14T12:21:27.519Z,37.05
2022-12-14T12:24:21.751Z,33.42
2022-12-14T12:27:15.164Z,34.42
2022-12-14T12:30:07.843Z,33.83
2022-12-14T12:32:49.984Z,31.45
2022-12-14T12:35:19.193Z,33.70
2022-12-14T12:37:55.329Z,39.60
2022-12-14T12:40:33.741Z,37.30
2022-12-14T12:43:13.531Z,36.58
2022-12-14T12:45:49.667Z,41.92
2022-12-14T12:48:53.982Z,41.17
2022-12-14T12:51:43.384Z,39.40
2022-12-14T12:54:25.853Z,45.88
2022-12-14T12:56:53.956Z,37.45
2022-12-14T12:59:31.512Z,37.90
2022-12-14T13:02:01.154Z,39.33
2022-12-14T13:04:37.028Z,46.05
2022-12-14T13:07:25.733Z,43.00
2022-12-14T13:10:06.302Z,46.95
2022-12-14T13:12:35.858Z,43.22
2022-12-14T13:15:04.489Z,39.33
2022-12-14T13:17:38.483Z,42.05
2022-12-14T13:20:07.325Z,46.78
2022-12-14T13:22:34.360Z,49.42
2022-12-14T13:28:04.683Z,47.13
2022-12-14T13:30:53.408Z,48.88
2022-12-14T13:33:45.586Z,49.40
2022-12-14T13:36:45.960Z,50.95
2022-12-14T13:39:21.441Z,43.47
2022-12-14T13:41:48.850Z,46.70
2022-12-14T13:44:24.941Z,51.33
2022-12-14T13:47:02.833Z,41.33
2022-12-14T13:49:29.919Z,57.75
2022-12-14T13:51:57.228Z,56.17
2022-12-14T13:54:28.207Z,56.13
2022-12-14T13:57:08.742Z,41.50
2022-12-14T13:59:43.817Z,50.05
2022-12-14T14:02:32.160Z,53.53
2022-12-14T14:05:20.622Z,53.63
2022-12-14T14:08:06.206Z,60.47
2022-12-14T14:10:34.096Z,63.47
2022-12-14T14:13:02.336Z,67.95
2022-12-14T14:15:38.142Z,57.97
2022-12-14T14:18:20.560Z,65.38
2022-12-14T14:20:53.774Z,63.08
2022-12-14T14:23:24.204Z,65.93
2022-12-14T14:28:40.467Z,64.28
2022-12-14T14:31:07.843Z,69.60
2022-12-14T14:34:01.083Z,74.55
2022-12-14T14:36:36.966Z,68.97
2022-12-14T14:39:54.838Z,71.80
2022-12-14T14:42:19.955Z,70.30
2022-12-14T14:45:01.855Z,75.03
2022-12-14T14:47:38.930Z,74.00
2022-12-14T14:50:18.266Z,73.20
2022-12-14T14:52:46.591Z,86.97
2022-12-14T14:58:27.348Z,71.63
2022-12-14T15:01:06.424Z,81.70
2022-12-14T15:03:52.245Z,74.47
2022-12-14T15:06:30.835Z,73.22
2022-12-14T15:08:59.894Z,80.85
2022-12-14T15:11:28.152Z,75.65
2022-12-14T15:14:03.284Z,79.88
2022-12-14T15:16:32.773Z,77.22
2022-12-14T15:19:25.121Z,78.35
2022-12-14T15:21:57.806Z,88.13
2022-12-14T15:24:25.447Z,75.88
2022-12-14T15:26:52.726Z,78.88
2022-12-14T15:29:23.047Z,83.22
2022-12-14T15:31:57.483Z,72.63
2022-12-14T15:34:26.527Z,80.80
2022-12-14T15:36:53.620Z,81.88
2022-12-14T15:42:16.782Z,85.00
2022-12-14T15:44:51.313Z,84.20
2022-12-14T15:47:28.823Z,87.95
2022-12-14T15:52:30.300Z,81.93
2022-12-14T15:54:57.985Z,90.05
2022-12-14T15:57:25.190Z,84.00
2022-12-14T15:59:52.240Z,88.53
2022-12-14T16:05:01.618Z,86.07
2022-12-14T16:07:38.715Z,92.10
2022-12-14T16:10:21.902Z,96.18
2022-12-14T16:12:49.670Z,86.13
2022-12-14T16:15:21.833Z,84.55
2022-12-14T16:17:48.885Z,84.95
2022-12-14T16:22:46.792Z,82.35
2022-12-14T16:25:19.167Z,90.85
2022-12-14T16:27:50.124Z,87.22
2022-12-14T16:30:33.088Z,88.70
2022-12-14T16:33:16.752Z,86.82
2022-12-14T16:35:44.791Z,88.30
2022-12-14T16:38:16.285Z,84.93
2022-12-14T16:40:54.311Z,86.75
2022-12-14T16:43:40.880Z,75.43
2022-12-14T16:46:08.508Z,92.85
2022-12-14T16:48:38.254Z,94.50
2022-12-14T16:51:37.981Z,90.10
2022-12-14T16:54:41.224Z,102.60
2022-12-14T16:57:18.452Z,90.38
2022-12-14T16:59:46.442Z,90.53
2022-12-14T17:02:34.725Z,92.85
2022-12-14T17:05:04.405Z,83.10
2022-12-14T17:07:32.954Z,82.53
2022-12-14T17:10:00.276Z,84.95
2022-12-14T17:12:27.559Z,97.97
2022-12-14T17:14:55.147Z,76.82
2022-12-14T17:17:32.414Z,97.65
2022-12-14T17:20:00.083Z,88.40
2022-12-14T17:22:29.235Z,95.65
2022-12-14T17:24:56.325Z,95.95
2022-12-14T17:29:54.261Z,95.13
2022-12-14T17:32:21.575Z,103.07
2022-12-14T17:34:48.693Z,101.63
2022-12-14T17:37:22.934Z,99.25
2022-12-14T17:39:50.586Z,102.15
2022-12-14T17:42:20.462Z,100.93
2022-12-14T17:44:55.846Z,105.95
2022-12-14T17:47:22.995Z,106.80
2022-12-14T17:49:50.049Z,107.57
2022-12-14T17:54:45.699Z,103.78
2022-12-14T17:57:20.451Z,108.63
2022-12-14T17:59:47.995Z,101.70
2022-12-14T18:02:28.871Z,111.22
2022-12-14T18:04:56.020Z,104.18
2022-12-14T18:09:52.982Z,99.88
2022-12-14T18:12:24.406Z,104.53
2022-12-14T18:14:52.395Z,103.55
2022-12-14T18:17:19.556Z,106.32
2022-12-14T18:19:47.917Z,109.15
2022-12-14T18:22:16.808Z,101.18
2022-12-14T18:27:14.593Z,102.40
2022-12-14T18:29:41.723Z,102.80
2022-12-14T18:32:13.131Z,96.68
2022-12-14T18:34:40.189Z,122.15
2022-12-14T18:39:34.160Z,112.55
2022-12-14T18:44:28.396Z,110.82
2022-12-14T18:49:22.539Z,102.32
2022-12-14T18:54:16.724Z,104.43
2022-12-14T18:56:43.858Z,116.55
2022-12-14T18:59:10.967Z,123.25
2022-12-14T19:04:05.799Z,131.20
2022-12-14T19:06:48.200Z,122.38
2022-12-14T19:09:15.521Z,118.97
2022-12-14T19:11:42.665Z,122.57
2022-12-14T19:14:10.946Z,130.77
2022-12-14T19:16:38.153Z,122.13
2022-12-14T19:19:05.415Z,118.97
2022-12-14T19:21:32.566Z,117.00
2022-12-14T19:24:00.411Z,117.38
2022-12-14T19:26:28.598Z,105.55
2022-12-14T19:28:55.844Z,113.60
2022-12-14T19:31:23.095Z,118.13
2022-12-14T19:33:50.244Z,111.88
2022-12-14T19:36:17.474Z,115.85
2022-12-14T19:38:48.999Z,105.00
2022-12-14T19:41:17.839Z,105.68
2022-12-14T19:43:44.923Z,110.50
2022-12-14T19:48:39.523Z,108.23
2022-12-14T19:51:07.743Z,110.82
2022-12-14T19:53:35.432Z,113.43
2022-12-14T19:56:03.103Z,116.28
2022-12-14T19:58:30.147Z,112.32
2022-12-14T20:03:24.262Z,111.30
2022-12-14T20:05:55.261Z,107.00
2022-12-14T20:08:22.743Z,109.63
2022-12-14T20:10:50.040Z,107.82
2022-12-14T20:13:17.184Z,111.90
2022-12-14T20:15:54.379Z,108.35
2022-12-14T20:18:23.043Z,114.75
2022-12-14T20:20:50.721Z,121.63
2022-12-14T20:23:22.010Z,111.47
2022-12-14T20:25:49.701Z,105.57
2022-12-14T20:28:16.905Z,112.25
2022-12-14T20:30:44.942Z,115.72
2022-12-14T20:33:12.396Z,108.45
2022-12-14T20:35:39.466Z,111.28
2022-12-14T20:38:07.129Z,115.90
2022-12-14T20:40:38.630Z,115.13
2022-12-14T20:43:07.281Z,106.28
2022-12-14T20:45:39.135Z,104.85
2022-12-14T20:48:06.870Z,107.72
2022-12-14T20:50:35.673Z,105.40
2022-12-14T20:53:02.707Z,115.93
2022-12-14T20:57:57.006Z,114.85
2022-12-14T21:00:24.253Z,114.18
2022-12-14T21:02:51.598Z,110.85
2022-12-14T21:05:19.032Z,116.03
2022-12-14T21:07:46.005Z,114.95
2022-12-14T21:12:39.943Z,116.60
2022-12-14T21:15:07.568Z,102.90
2022-12-14T21:17:34.666Z,114.43
2022-12-14T21:20:01.930Z,108.15
2022-12-14T21:22:30.502Z,125.65
2022-12-14T21:25:06.336Z,108.80
2022-12-14T21:27:35.162Z,112.45
2022-12-14T21:30:02.358Z,117.95
2022-12-14T21:32:29.399Z,106.90
2022-12-14T21:37:23.736Z,114.15
2022-12-14T21:39:54.342Z,110.10
2022-12-14T21:42:25.785Z,108.70
2022-12-14T21:44:53.319Z,105.72
2022-12-14T21:47:22.414Z,112.38
2022-12-14T21:49:49.527Z,113.30
2022-12-14T21:52:19.015Z,121.70
2022-12-14T21:54:46.193Z,117.72
2022-12-14T21:57:41.252Z,121.07
2022-12-14T22:00:09.314Z,121.43
2022-12-14T22:02:39.650Z,110.25
2022-12-14T22:05:07.302Z,122.43
2022-12-14T22:07:34.492Z,120.40
2022-12-14T22:10:01.698Z,122.43
2022-12-14T22:12:28.966Z,118.85
2022-12-14T22:14:56.047Z,111.72
2022-12-14T22:19:51.235Z,114.25
2022-12-14T22:22:18.345Z,111.07
2022-12-14T22:27:15.037Z,121.75
2022-12-14T22:29:42.389Z,114.55
2022-12-14T22:32:11.318Z,121.00
2022-12-14T22:34:38.764Z,123.35
2022-12-14T22:37:06.013Z,124.15
2022-12-14T22:39:33.142Z,120.22
2022-12-14T22:42:00.351Z,118.85
2022-12-14T22:44:27.563Z,119.78
2022-12-14T22:46:54.932Z,119.68
2022-12-14T22:49:21.996Z,117.10
2022-12-14T22:54:21.192Z,128.88
2022-12-14T22:57:15.457Z,114.80
2022-12-14T22:59:47.671Z,115.97
2022-12-14T23:02:15.047Z,126.70
2022-12-14T23:04:42.334Z,121.18
2022-12-14T23:07:09.442Z,114.60
2022-12-14T23:12:40.975Z,117.13
2022-12-14T23:15:27.130Z,117.45
2022-12-14T23:18:23.216Z,121.20
2022-12-14T23:21:08.996Z,122.82
2022-12-14T23:23:58.605Z,132.02
2022-12-14T23:26:44.439Z,119.25
2022-12-14T23:29:30.115Z,111.28
2022-12-14T23:32:15.557Z,130.77
2022-12-14T23:35:01.002Z,125.78
2022-12-14T23:37:46.520Z,122.25
2022-12-14T23:40:32.037Z,132.98
2022-12-14T23:43:28.427Z,126.97
2022-12-14T23:46:14.847Z,119.78
2022-12-14T23:49:01.072Z,113.00
2022-12-14T23:51:46.554Z,121.18
2022-12-14T23:54:32.182Z,119.95
2022-12-14T23:57:17.867Z,130.27
